createdAt,value
2023-02-28T00:00:36.481Z,647.00
2023-02-28T00:01:36.504Z,645.00
2023-02-28T00:03:54.594Z,629.00
2023-02-28T00:04:55.580Z,629.00
2023-02-28T00:05:54.608Z,629.00
2023-02-28T00:06:55.570Z,631.00
2023-02-28T00:07:55.565Z,633.00
2023-02-28T00:08:55.585Z,633.00
2023-02-28T00:11:13.737Z,620.00
2023-02-28T00:12:13.672Z,622.00
2023-02-28T00:13:14.668Z,626.00
2023-02-28T00:14:14.654Z,628.00
2023-02-28T00:15:13.650Z,629.00
2023-02-28T00:16:13.728Z,629.00
2023-02-28T00:17:14.671Z,632.00
2023-02-28T00:18:13.623Z,633.00
2023-02-28T00:19:13.611Z,635.00
2023-02-28T00:20:13.610Z,633.00
2023-02-28T00:21:14.599Z,632.00
2023-02-28T00:22:14.583Z,633.00
2023-02-28T00:23:14.614Z,633.00
2023-02-28T00:24:13.561Z,632.00
2023-02-28T00:25:14.574Z,632.00
2023-02-28T00:26:16.387Z,634.00
2023-02-28T00:27:14.578Z,634.00
2023-02-28T00:28:13.552Z,637.00
2023-02-28T00:29:14.584Z,636.00
2023-02-28T00:30:14.513Z,635.00
2023-02-28T00:31:14.636Z,633.00
2023-02-28T00:32:14.523Z,632.00
2023-02-28T00:33:14.541Z,628.00
2023-02-28T00:34:13.571Z,630.00
2023-02-28T00:35:13.551Z,629.00
2023-02-28T00:36:14.493Z,629.00
2023-02-28T00:37:13.470Z,629.00
2023-02-28T00:38:14.478Z,628.00
2023-02-28T00:39:14.504Z,627.00
2023-02-28T00:40:14.462Z,625.00
2023-02-28T00:41:14.468Z,627.00
2023-02-28T00:42:28.606Z,625.00
2023-02-28T00:43:14.437Z,625.00
2023-02-28T00:44:14.430Z,623.00
2023-02-28T00:45:14.421Z,620.00
2023-02-28T00:46:14.467Z,619.00
2023-02-28T00:47:13.433Z,618.00
2023-02-28T00:48:14.407Z,616.00
2023-02-28T00:49:14.423Z,617.00
2023-02-28T00:50:13.389Z,616.00
2023-02-28T00:51:14.473Z,616.00
2023-02-28T00:52:14.404Z,615.00
2023-02-28T00:53:14.374Z,615.00
2023-02-28T00:54:14.375Z,617.00
2023-02-28T00:55:14.364Z,616.00
2023-02-28T00:56:14.391Z,617.00
2023-02-28T00:57:14.352Z,615.00
2023-02-28T00:58:14.364Z,613.00
2023-02-28T00:59:14.327Z,616.00
2023-02-28T01:00:14.321Z,615.00
2023-02-28T01:01:13.324Z,615.00
2023-02-28T01:02:14.334Z,616.00
2023-02-28T01:03:14.321Z,615.00
2023-02-28T01:04:13.314Z,613.00
2023-02-28T01:05:14.296Z,613.00
2023-02-28T01:06:14.288Z,611.00
2023-02-28T01:07:13.266Z,612.00
2023-02-28T01:08:13.257Z,611.00
2023-02-28T01:10:32.424Z,605.00
2023-02-28T01:11:33.356Z,609.00
2023-02-28T01:13:51.497Z,604.00
2023-02-28T01:14:51.436Z,611.00
2023-02-28T01:15:52.649Z,616.00
2023-02-28T01:16:52.455Z,617.00
2023-02-28T01:17:51.474Z,616.00
2023-02-28T01:18:51.455Z,617.00
2023-02-28T01:19:52.443Z,618.00
2023-02-28T01:20:52.469Z,617.00
2023-02-28T01:21:52.418Z,616.00
2023-02-28T01:22:52.476Z,616.00
2023-02-28T01:23:52.425Z,615.00
2023-02-28T01:24:52.438Z,614.00
2023-02-28T01:25:52.407Z,612.00
2023-02-28T01:26:52.435Z,612.00
2023-02-28T01:27:51.362Z,609.00
2023-02-28T01:28:51.363Z,611.00
2023-02-28T01:29:51.355Z,609.00
2023-02-28T01:30:52.607Z,609.00
2023-02-28T01:31:52.404Z,610.00
2023-02-28T01:32:51.354Z,609.00
2023-02-28T01:33:52.315Z,607.00
2023-02-28T01:34:52.356Z,607.00
2023-02-28T01:35:52.347Z,609.00
2023-02-28T01:36:52.337Z,607.00
2023-02-28T01:37:52.358Z,606.00
2023-02-28T01:38:51.282Z,606.00
2023-02-28T01:39:51.354Z,604.00
2023-02-28T01:40:52.278Z,606.00
2023-02-28T01:41:51.256Z,607.00
2023-02-28T01:42:51.279Z,608.00
2023-02-28T01:43:52.237Z,607.00
2023-02-28T01:44:52.269Z,607.00
2023-02-28T01:45:52.225Z,605.00
2023-02-28T01:46:51.221Z,604.00
2023-02-28T01:47:52.224Z,607.00
2023-02-28T01:48:52.202Z,604.00
2023-02-28T01:49:52.193Z,605.00
2023-02-28T01:50:51.187Z,603.00
2023-02-28T01:51:52.252Z,603.00
2023-02-28T01:52:51.199Z,604.00
2023-02-28T01:53:52.190Z,603.00
2023-02-28T01:54:51.194Z,604.00
2023-02-28T01:55:52.191Z,603.00
2023-02-28T01:56:52.177Z,602.00
2023-02-28T01:57:52.196Z,601.00
2023-02-28T01:58:52.173Z,598.00
2023-02-28T01:59:51.168Z,599.00
2023-02-28T02:00:52.192Z,600.00
2023-02-28T02:01:52.749Z,601.00
2023-02-28T02:02:51.246Z,601.00
2023-02-28T02:03:52.216Z,601.00
2023-02-28T02:04:52.158Z,601.00
2023-02-28T02:07:10.249Z,592.00
2023-02-28T02:08:11.330Z,601.00
2023-02-28T02:09:11.245Z,601.00
2023-02-28T02:10:11.246Z,599.00
2023-02-28T02:11:11.298Z,597.00
2023-02-28T02:12:11.220Z,597.00
2023-02-28T02:13:11.227Z,599.00
2023-02-28T02:14:11.213Z,599.00
2023-02-28T02:15:11.207Z,600.00
2023-02-28T02:16:11.256Z,602.00
2023-02-28T02:17:11.252Z,598.00
2023-02-28T02:18:11.246Z,599.00
2023-02-28T02:19:11.172Z,603.00
2023-02-28T02:20:10.214Z,606.00
2023-02-28T02:22:29.278Z,592.00
2023-02-28T02:23:30.277Z,594.00
2023-02-28T02:24:30.247Z,596.00
2023-02-28T02:25:29.290Z,594.00
2023-02-28T02:26:29.223Z,595.00
2023-02-28T02:27:30.230Z,594.00
2023-02-28T02:28:31.965Z,594.00
2023-02-28T02:29:30.215Z,597.00
2023-02-28T02:30:30.195Z,596.00
2023-02-28T02:31:30.726Z,595.00
2023-02-28T02:32:30.282Z,593.00
2023-02-28T02:33:30.965Z,592.00
2023-02-28T02:34:30.185Z,595.00
2023-02-28T02:35:29.222Z,595.00
2023-02-28T02:36:29.157Z,594.00
2023-02-28T02:37:30.176Z,595.00
2023-02-28T02:38:30.156Z,592.00
2023-02-28T02:39:30.166Z,593.00
2023-02-28T02:40:29.142Z,590.00
2023-02-28T02:41:30.596Z,590.00
2023-02-28T02:42:30.188Z,590.00
2023-02-28T02:43:30.114Z,590.00
2023-02-28T02:44:29.108Z,592.00
2023-02-28T02:45:30.123Z,593.00
2023-02-28T02:46:30.980Z,591.00
2023-02-28T02:47:30.083Z,590.00
2023-02-28T02:48:30.077Z,592.00
2023-02-28T02:49:29.066Z,592.00
2023-02-28T02:50:29.066Z,595.00
2023-02-28T02:51:30.509Z,594.00
2023-02-28T02:52:30.050Z,592.00
2023-02-28T02:53:30.045Z,591.00
2023-02-28T02:55:48.140Z,582.00
2023-02-28T02:58:07.177Z,582.00
2023-02-28T02:59:08.356Z,583.00
2023-02-28T03:00:08.193Z,586.00
2023-02-28T03:01:08.168Z,586.00
2023-02-28T03:02:08.132Z,588.00
2023-02-28T03:03:08.136Z,590.00
2023-02-28T03:04:08.179Z,591.00
2023-02-28T03:05:08.105Z,590.00
2023-02-28T03:06:08.107Z,588.00
2023-02-28T03:07:08.102Z,586.00
2023-02-28T03:08:08.157Z,585.00
2023-02-28T03:09:08.103Z,585.00
2023-02-28T03:10:08.067Z,587.00
2023-02-28T03:11:08.155Z,588.00
2023-02-28T03:12:08.159Z,587.00
2023-02-28T03:13:08.064Z,585.00
2023-02-28T03:14:08.045Z,586.00
2023-02-28T03:15:08.082Z,585.00
2023-02-28T03:16:08.079Z,585.00
2023-02-28T03:17:07.027Z,585.00
2023-02-28T03:18:07.003Z,584.00
2023-02-28T03:19:08.029Z,584.00
2023-02-28T03:20:08.497Z,585.00
2023-02-28T03:21:07.995Z,581.00
2023-02-28T03:22:07.990Z,578.00
2023-02-28T03:23:08.039Z,582.00
2023-02-28T03:24:08.006Z,581.00
2023-02-28T03:25:07.953Z,582.00
2023-02-28T03:26:07.948Z,582.00
2023-02-28T03:27:07.984Z,585.00
2023-02-28T03:28:07.940Z,584.00
2023-02-28T03:29:07.957Z,582.00
2023-02-28T03:30:07.939Z,582.00
2023-02-28T03:31:07.911Z,581.00
2023-02-28T03:32:08.081Z,581.00
2023-02-28T03:33:07.889Z,580.00
2023-02-28T03:34:07.901Z,578.00
2023-02-28T03:35:07.918Z,577.00
2023-02-28T03:36:07.866Z,577.00
2023-02-28T03:37:08.069Z,573.00
2023-02-28T03:38:06.876Z,575.00
2023-02-28T03:39:07.885Z,576.00
2023-02-28T03:40:07.859Z,577.00
2023-02-28T03:42:25.952Z,570.00
2023-02-28T03:43:26.923Z,571.00
2023-02-28T03:44:26.910Z,572.00
2023-02-28T03:45:26.897Z,571.00
2023-02-28T03:46:26.925Z,570.00
2023-02-28T03:47:26.955Z,569.00
2023-02-28T03:48:26.886Z,569.00
2023-02-28T03:49:26.876Z,569.00
2023-02-28T03:50:26.910Z,573.00
2023-02-28T03:51:27.117Z,573.00
2023-02-28T03:52:25.859Z,574.00
2023-02-28T03:53:28.610Z,577.00
2023-02-28T03:54:25.820Z,578.00
2023-02-28T03:55:26.835Z,580.00
2023-02-28T03:56:26.861Z,582.00
2023-02-28T03:57:25.828Z,581.00
2023-02-28T03:58:26.899Z,580.00
2023-02-28T03:59:27.617Z,578.00
2023-02-28T04:00:27.755Z,575.00
2023-02-28T04:01:27.286Z,576.00
2023-02-28T04:02:26.813Z,575.00
2023-02-28T04:04:44.915Z,563.00
2023-02-28T04:05:45.901Z,571.00
2023-02-28T04:06:47.542Z,573.00
2023-02-28T04:07:46.110Z,571.00
2023-02-28T04:08:45.121Z,569.00
2023-02-28T04:10:00.581Z,570.00
2023-02-28T04:10:46.136Z,568.00
2023-02-28T04:11:45.140Z,567.00
2023-02-28T04:12:46.104Z,566.00
2023-02-28T04:13:47.544Z,566.00
2023-02-28T04:14:46.216Z,565.00
2023-02-28T04:15:46.216Z,566.00
2023-02-28T04:16:46.262Z,561.00
2023-02-28T04:19:04.351Z,562.00
2023-02-28T04:20:04.281Z,566.00
2023-02-28T04:21:05.271Z,570.00
2023-02-28T04:22:05.244Z,570.00
2023-02-28T04:23:05.246Z,569.00
2023-02-28T04:24:05.256Z,569.00
2023-02-28T04:25:05.229Z,566.00
2023-02-28T04:26:05.221Z,566.00
2023-02-28T04:27:05.221Z,565.00
2023-02-28T04:28:05.224Z,565.00
2023-02-28T04:29:05.238Z,568.00
2023-02-28T04:30:05.196Z,568.00
2023-02-28T04:31:05.197Z,567.00
2023-02-28T04:32:04.359Z,569.00
2023-02-28T04:33:05.179Z,570.00
2023-02-28T04:34:04.175Z,570.00
2023-02-28T04:35:04.169Z,569.00
2023-02-28T04:36:05.187Z,569.00
2023-02-28T04:37:14.147Z,569.00
2023-02-28T04:38:05.126Z,570.00
2023-02-28T04:39:05.153Z,570.00
2023-02-28T04:40:05.117Z,570.00
2023-02-28T04:41:04.117Z,570.00
2023-02-28T04:42:05.111Z,567.00
2023-02-28T04:43:05.130Z,567.00
2023-02-28T04:44:04.104Z,570.00
2023-02-28T04:45:05.108Z,572.00
2023-02-28T04:46:04.135Z,572.00
2023-02-28T04:47:05.074Z,571.00
2023-02-28T04:48:05.116Z,567.00
2023-02-28T04:49:04.072Z,565.00
2023-02-28T04:50:04.053Z,566.00
2023-02-28T04:51:04.048Z,567.00
2023-02-28T04:52:05.048Z,567.00
2023-02-28T04:53:05.034Z,566.00
2023-02-28T04:54:05.039Z,565.00
2023-02-28T04:55:05.004Z,566.00
2023-02-28T04:56:05.019Z,565.00
2023-02-28T04:57:04.990Z,567.00
2023-02-28T04:58:04.969Z,567.00
2023-02-28T04:59:04.971Z,566.00
2023-02-28T05:00:04.975Z,567.00
2023-02-28T05:01:04.982Z,570.00
2023-02-28T05:02:04.977Z,569.00
2023-02-28T05:03:03.933Z,568.00
2023-02-28T05:04:04.945Z,564.00
2023-02-28T05:05:05.059Z,562.00
2023-02-28T05:06:04.946Z,560.00
2023-02-28T05:07:04.899Z,561.00
2023-02-28T05:08:03.905Z,560.00
2023-02-28T05:09:06.469Z,559.00
2023-02-28T05:10:06.520Z,560.00
2023-02-28T05:11:05.100Z,560.00
2023-02-28T05:12:05.214Z,562.00
2023-02-28T05:13:05.188Z,560.00
2023-02-28T05:14:05.137Z,558.00
2023-02-28T05:15:05.151Z,557.00
2023-02-28T05:16:04.180Z,557.00
2023-02-28T05:17:05.164Z,558.00
2023-02-28T05:18:05.240Z,557.00
2023-02-28T05:19:07.044Z,553.00
2023-02-28T05:20:15.073Z,552.00
2023-02-28T05:21:05.162Z,551.00
2023-02-28T05:22:05.144Z,552.00
2023-02-28T05:23:05.150Z,551.00
2023-02-28T05:24:05.137Z,551.00
2023-02-28T05:25:05.121Z,550.00
2023-02-28T05:26:04.115Z,548.00
2023-02-28T05:27:05.108Z,547.00
2023-02-28T05:28:05.224Z,544.00
2023-02-28T05:29:05.145Z,543.00
2023-02-28T05:30:05.091Z,542.00
2023-02-28T05:31:05.069Z,544.00
2023-02-28T05:32:05.243Z,546.00
2023-02-28T05:33:05.132Z,548.00
2023-02-28T05:34:05.146Z,551.00
2023-02-28T05:35:05.098Z,551.00
2023-02-28T05:36:05.118Z,549.00
2023-02-28T05:37:04.033Z,545.00
2023-02-28T05:38:05.025Z,545.00
2023-02-28T05:39:04.093Z,545.00
2023-02-28T05:40:05.040Z,545.00
2023-02-28T05:41:05.048Z,546.00
2023-02-28T05:42:05.002Z,546.00
2023-02-28T05:43:05.000Z,548.00
2023-02-28T05:44:04.104Z,548.00
2023-02-28T05:45:03.971Z,545.00
2023-02-28T05:46:05.043Z,544.00
2023-02-28T05:47:04.959Z,544.00
2023-02-28T05:48:04.964Z,542.00
2023-02-28T05:49:05.142Z,541.00
2023-02-28T05:50:04.974Z,541.00
2023-02-28T05:51:04.936Z,539.00
2023-02-28T05:52:04.923Z,542.00
2023-02-28T05:53:04.920Z,541.00
2023-02-28T05:54:04.975Z,543.00
2023-02-28T05:55:04.907Z,542.00
2023-02-28T05:56:04.949Z,544.00
2023-02-28T05:57:12.641Z,543.00
2023-02-28T05:58:04.925Z,543.00
2023-02-28T05:59:05.028Z,543.00
2023-02-28T06:00:04.930Z,544.00
2023-02-28T06:01:04.952Z,542.00
2023-02-28T06:02:04.938Z,544.00
2023-02-28T06:03:04.937Z,543.00
2023-02-28T06:04:04.985Z,544.00
2023-02-28T06:05:04.903Z,543.00
2023-02-28T06:06:04.951Z,542.00
2023-02-28T06:07:04.853Z,539.00
2023-02-28T06:08:04.859Z,539.00
2023-02-28T06:09:04.837Z,539.00
2023-02-28T06:10:04.836Z,538.00
2023-02-28T06:11:04.830Z,538.00
2023-02-28T06:12:03.877Z,538.00
2023-02-28T06:14:22.895Z,542.00
2023-02-28T06:15:23.879Z,548.00
2023-02-28T06:16:22.995Z,549.00
2023-02-28T06:17:23.869Z,548.00
2023-02-28T06:18:23.849Z,547.00
2023-02-28T06:19:23.877Z,546.00
2023-02-28T06:20:22.864Z,545.00
2023-02-28T06:21:23.843Z,544.00
2023-02-28T06:22:23.837Z,541.00
2023-02-28T06:23:23.835Z,542.00
2023-02-28T06:24:22.823Z,541.00
2023-02-28T06:25:23.820Z,543.00
2023-02-28T06:26:23.794Z,551.00
2023-02-28T06:27:23.792Z,554.00
2023-02-28T06:28:22.791Z,557.00
2023-02-28T06:29:22.795Z,566.00
2023-02-28T06:30:23.787Z,670.00
2023-02-28T06:31:23.927Z,662.00
2023-02-28T06:32:23.847Z,630.00
2023-02-28T06:33:23.747Z,611.00
2023-02-28T06:34:23.757Z,605.00
2023-02-28T06:35:22.840Z,604.00
2023-02-28T06:36:23.740Z,606.00
2023-02-28T06:37:22.723Z,610.00
2023-02-28T06:38:23.700Z,616.00
2023-02-28T06:39:23.714Z,621.00
2023-02-28T06:40:23.713Z,620.00
2023-02-28T06:41:23.681Z,625.00
2023-02-28T06:42:23.688Z,632.00
2023-02-28T06:43:23.673Z,647.00
2023-02-28T06:44:23.702Z,655.00
2023-02-28T06:45:23.668Z,666.00
2023-02-28T06:46:23.739Z,677.00
2023-02-28T06:47:23.641Z,681.00
2023-02-28T06:48:23.632Z,685.00
2023-02-28T06:49:23.632Z,686.00
2023-02-28T06:50:22.618Z,696.00
2023-02-28T06:51:23.636Z,736.00
2023-02-28T06:52:22.636Z,752.00
2023-02-28T06:53:23.590Z,851.00
2023-02-28T06:54:23.589Z,845.00
2023-02-28T06:55:23.581Z,902.00
2023-02-28T06:56:22.570Z,919.00
2023-02-28T06:57:23.560Z,935.00
2023-02-28T06:58:22.546Z,951.00
2023-02-28T06:59:23.559Z,1017.00
2023-02-28T07:00:23.546Z,1047.00
2023-02-28T07:01:23.563Z,1125.00
2023-02-28T07:02:22.534Z,1132.00
2023-02-28T07:03:22.517Z,1142.00
2023-02-28T07:04:22.625Z,1159.00
2023-02-28T07:05:22.642Z,1189.00
2023-02-28T07:06:23.802Z,1221.00
2023-02-28T07:07:23.802Z,1284.00
2023-02-28T07:08:22.811Z,1320.00
2023-02-28T07:09:23.806Z,1420.00
2023-02-28T07:10:23.822Z,1450.00
2023-02-28T07:11:23.860Z,1559.00
2023-02-28T07:12:22.865Z,1564.00
2023-02-28T07:13:23.869Z,1581.00
2023-02-28T07:14:22.892Z,1600.00
2023-02-28T07:15:23.893Z,1629.00
2023-02-28T07:16:24.001Z,1693.00
2023-02-28T07:17:23.892Z,1747.00
2023-02-28T07:18:23.885Z,1775.00
2023-02-28T07:19:23.889Z,1794.00
2023-02-28T07:20:22.885Z,1896.00
2023-02-28T07:21:22.899Z,1906.00
2023-02-28T07:22:23.898Z,1921.00
2023-02-28T07:23:23.939Z,1953.00
2023-02-28T07:24:23.945Z,2013.00
2023-02-28T07:25:23.914Z,2051.00
2023-02-28T07:26:22.937Z,2068.00
2023-02-28T07:27:23.942Z,2086.00
2023-02-28T07:28:23.940Z,2118.00
2023-02-28T07:29:23.960Z,2149.00
2023-02-28T07:30:23.945Z,2171.00
2023-02-28T07:31:24.042Z,2183.00
2023-02-28T07:32:23.958Z,2187.00
2023-02-28T07:33:23.916Z,2224.00
2023-02-28T07:34:23.935Z,2285.00
2023-02-28T07:35:23.001Z,2306.00
2023-02-28T07:36:23.943Z,2314.00
2023-02-28T07:37:22.942Z,2322.00
2023-02-28T07:38:23.932Z,2344.00
2023-02-28T07:39:22.947Z,2376.00
2023-02-28T07:40:24.005Z,2409.00
2023-02-28T07:41:24.132Z,2432.00
2023-02-28T07:42:22.937Z,2452.00
2023-02-28T07:43:23.933Z,2478.00
2023-02-28T07:44:23.918Z,2589.00
2023-02-28T07:45:23.951Z,2626.00
2023-02-28T07:46:23.967Z,2647.00
2023-02-28T07:47:25.448Z,2674.00
2023-02-28T07:48:24.208Z,2749.00
2023-02-28T07:49:24.152Z,2781.00
2023-02-28T07:50:23.200Z,2810.00
2023-02-28T07:51:24.237Z,2828.00
2023-02-28T07:52:24.260Z,2816.00
2023-02-28T07:53:24.297Z,2804.00
2023-02-28T07:54:23.319Z,2794.00
2023-02-28T07:55:24.342Z,2783.00
2023-02-28T07:56:24.384Z,2760.00
2023-02-28T07:57:24.388Z,2749.00
2023-02-28T07:58:23.426Z,2760.00
2023-02-28T07:59:23.429Z,2864.00
2023-02-28T08:00:24.528Z,2909.00
2023-02-28T08:01:23.598Z,2913.00
2023-02-28T08:02:24.607Z,2927.00
2023-02-28T08:03:24.694Z,2952.00
2023-02-28T08:04:24.729Z,2975.00
2023-02-28T08:05:24.802Z,2995.00
2023-02-28T08:06:24.843Z,3043.00
2023-02-28T08:07:24.934Z,3076.00
2023-02-28T08:08:24.987Z,3111.00
2023-02-28T08:09:25.023Z,3148.00
2023-02-28T08:10:25.090Z,3163.00
2023-02-28T08:11:25.138Z,3177.00
2023-02-28T08:12:24.220Z,3188.00
2023-02-28T08:13:25.239Z,3203.00
2023-02-28T08:14:25.298Z,3222.00
2023-02-28T08:15:25.349Z,3235.00
2023-02-28T08:16:25.451Z,3285.00
2023-02-28T08:17:25.430Z,3316.00
2023-02-28T08:18:25.509Z,3321.00
2023-02-28T08:19:25.540Z,3322.00
2023-02-28T08:20:25.670Z,3330.00
2023-02-28T08:21:25.595Z,3337.00
2023-02-28T08:22:25.648Z,3357.00
2023-02-28T08:23:24.655Z,3364.00
2023-02-28T08:24:24.701Z,3366.00
2023-02-28T08:25:25.753Z,3383.00
2023-02-28T08:26:24.755Z,3405.00
2023-02-28T08:27:25.789Z,3533.00
2023-02-28T08:28:27.371Z,3500.00
2023-02-28T08:29:25.837Z,3521.00
2023-02-28T08:30:25.913Z,3533.00
2023-02-28T08:31:24.820Z,3538.00
2023-02-28T08:32:30.403Z,3563.00
2023-02-28T08:33:24.783Z,3588.00
2023-02-28T08:34:25.782Z,3591.00
2023-02-28T08:35:24.790Z,3600.00
2023-02-28T08:36:24.795Z,3618.00
2023-02-28T08:37:25.751Z,3630.00
2023-02-28T08:38:25.748Z,3646.00
2023-02-28T08:39:25.719Z,3685.00
2023-02-28T08:40:24.736Z,3726.00
2023-02-28T08:41:25.706Z,3722.00
2023-02-28T08:42:25.734Z,3720.00
2023-02-28T08:43:25.705Z,3728.00
2023-02-28T08:44:25.732Z,3738.00
2023-02-28T08:45:26.157Z,3755.00
2023-02-28T08:46:25.673Z,3775.00
2023-02-28T08:47:25.674Z,3892.00
2023-02-28T08:48:25.668Z,3819.00
2023-02-28T08:49:25.664Z,3777.00
2023-02-28T08:50:26.129Z,3729.00
2023-02-28T08:51:25.635Z,3719.00
2023-02-28T08:52:25.626Z,3696.00
2023-02-28T08:53:25.620Z,3614.00
2023-02-28T08:54:24.627Z,3613.00
2023-02-28T08:55:25.613Z,3628.00
2023-02-28T08:56:25.606Z,3642.00
2023-02-28T08:57:24.596Z,3644.00
2023-02-28T08:58:24.596Z,3633.00
2023-02-28T08:59:25.582Z,3817.00
2023-02-28T09:00:24.616Z,3696.00
2023-02-28T09:01:25.596Z,3679.00
2023-02-28T09:02:24.598Z,3684.00
2023-02-28T09:03:25.570Z,3682.00
2023-02-28T09:04:25.584Z,3692.00
2023-02-28T09:05:25.547Z,3704.00
2023-02-28T09:06:25.580Z,3710.00
2023-02-28T09:07:25.520Z,3720.00
2023-02-28T09:08:24.525Z,3727.00
2023-02-28T09:09:25.515Z,3798.00
2023-02-28T09:10:25.562Z,3788.00
2023-02-28T09:11:24.507Z,3825.00
2023-02-28T09:12:24.486Z,3827.00
2023-02-28T09:13:25.485Z,3840.00
2023-02-28T09:14:25.518Z,3845.00
2023-02-28T09:15:25.473Z,3852.00
2023-02-28T09:16:25.553Z,3862.00
2023-02-28T09:17:25.639Z,3877.00
2023-02-28T09:18:25.444Z,3878.00
2023-02-28T09:19:24.433Z,3980.00
2023-02-28T09:20:24.474Z,3971.00
2023-02-28T09:21:24.437Z,3990.00
2023-02-28T09:22:24.423Z,3998.00
2023-02-28T09:23:25.413Z,3986.00
2023-02-28T09:24:25.393Z,3988.00
2023-02-28T09:25:25.386Z,3995.00
2023-02-28T09:26:24.408Z,4173.00
2023-02-28T09:27:25.383Z,4112.00
2023-02-28T09:28:25.381Z,4117.00
2023-02-28T09:29:25.368Z,4115.00
2023-02-28T09:30:25.458Z,4116.00
2023-02-28T09:31:24.374Z,4115.00
2023-02-28T09:32:24.440Z,4120.00
2023-02-28T09:33:25.338Z,4136.00
2023-02-28T09:34:25.395Z,4175.00
2023-02-28T09:35:25.322Z,4192.00
2023-02-28T09:36:34.488Z,4200.00
2023-02-28T09:37:25.330Z,4205.00
2023-02-28T09:38:24.306Z,4525.00
2023-02-28T09:39:25.288Z,4300.00
2023-02-28T09:40:25.300Z,4286.00
2023-02-28T09:41:25.300Z,4306.00
2023-02-28T09:42:25.278Z,4297.00
2023-02-28T09:43:25.258Z,4312.00
2023-02-28T09:44:25.261Z,4311.00
2023-02-28T09:45:25.646Z,4302.00
2023-02-28T09:46:25.282Z,4295.00
2023-02-28T09:47:25.229Z,4272.00
2023-02-28T09:48:25.270Z,4267.00
2023-02-28T09:49:24.216Z,4257.00
2023-02-28T09:50:25.260Z,4257.00
2023-02-28T09:51:25.219Z,4255.00
2023-02-28T09:52:25.256Z,4270.00
2023-02-28T09:53:25.198Z,4271.00
2023-02-28T09:54:24.185Z,4279.00
2023-02-28T09:55:26.349Z,4279.00
2023-02-28T09:56:25.666Z,4302.00
2023-02-28T09:57:25.180Z,4326.00
2023-02-28T09:58:25.194Z,4334.00
2023-02-28T09:59:24.156Z,4350.00
2023-02-28T10:00:25.152Z,4354.00
2023-02-28T10:01:25.149Z,4342.00
2023-02-28T10:02:25.123Z,4330.00
2023-02-28T10:03:25.150Z,4308.00
2023-02-28T10:04:24.211Z,4261.00
2023-02-28T10:05:25.111Z,4239.00
2023-02-28T10:06:25.118Z,4240.00
2023-02-28T10:07:24.103Z,4223.00
2023-02-28T10:08:25.083Z,4209.00
2023-02-28T10:09:25.146Z,4193.00
2023-02-28T10:10:24.130Z,4184.00
2023-02-28T10:11:25.724Z,4194.00
2023-02-28T10:12:24.153Z,4212.00
2023-02-28T10:13:25.153Z,4231.00
2023-02-28T10:14:25.176Z,4241.00
2023-02-28T10:15:25.167Z,4235.00
2023-02-28T10:16:25.154Z,4228.00
2023-02-28T10:17:25.157Z,4220.00
2023-02-28T10:18:24.159Z,4080.00
2023-02-28T10:19:25.156Z,4086.00
2023-02-28T10:20:25.195Z,4084.00
2023-02-28T10:21:25.194Z,4095.00
2023-02-28T10:22:25.187Z,4098.00
2023-02-28T10:23:25.199Z,4112.00
2023-02-28T10:24:25.220Z,4116.00
2023-02-28T10:25:25.194Z,4134.00
2023-02-28T10:26:25.198Z,4205.00
2023-02-28T10:27:25.202Z,4232.00
2023-02-28T10:28:24.199Z,4255.00
2023-02-28T10:29:25.207Z,4270.00
2023-02-28T10:30:25.209Z,4255.00
2023-02-28T10:31:26.384Z,4168.00
2023-02-28T10:32:25.405Z,4177.00
2023-02-28T10:33:25.255Z,4191.00
2023-02-28T10:34:25.175Z,4190.00
2023-02-28T10:35:25.193Z,4185.00
2023-02-28T10:36:25.263Z,4241.00
2023-02-28T10:37:25.178Z,4296.00
2023-02-28T10:38:25.178Z,4256.00
2023-02-28T10:39:25.161Z,4314.00
2023-02-28T10:40:25.157Z,4235.00
2023-02-28T10:41:24.166Z,4237.00
2023-02-28T10:42:25.143Z,4236.00
2023-02-28T10:43:24.135Z,4241.00
2023-02-28T10:44:25.148Z,4392.00
2023-02-28T10:45:24.143Z,4206.00
2023-02-28T10:46:25.215Z,4225.00
2023-02-28T10:47:25.132Z,4229.00
2023-02-28T10:48:24.139Z,4274.00
2023-02-28T10:49:25.210Z,4244.00
2023-02-28T10:50:25.180Z,4239.00
2023-02-28T10:51:25.670Z,4248.00
2023-02-28T10:52:25.236Z,4291.00
2023-02-28T10:53:25.235Z,4303.00
2023-02-28T10:54:25.246Z,4291.00
2023-02-28T10:55:24.278Z,4275.00
2023-02-28T10:56:25.326Z,4278.00
2023-02-28T10:57:25.392Z,4278.00
2023-02-28T10:58:25.397Z,4276.00
2023-02-28T10:59:25.411Z,4272.00
2023-02-28T11:00:25.467Z,4268.00
2023-02-28T11:01:24.556Z,4256.00
2023-02-28T11:02:25.548Z,4249.00
2023-02-28T11:03:25.589Z,4238.00
2023-02-28T11:04:25.686Z,4230.00
2023-02-28T11:05:24.684Z,4216.00
2023-02-28T11:06:25.768Z,4207.00
2023-02-28T11:07:27.640Z,4191.00
2023-02-28T11:08:25.819Z,4180.00
2023-02-28T11:09:25.774Z,4161.00
2023-02-28T11:10:25.774Z,4133.00
2023-02-28T11:11:25.773Z,4127.00
2023-02-28T11:12:25.766Z,4120.00
2023-02-28T11:13:25.742Z,4109.00
2023-02-28T11:14:25.750Z,4097.00
2023-02-28T11:15:25.730Z,4093.00
2023-02-28T11:16:24.771Z,4081.00
2023-02-28T11:17:25.714Z,4077.00
2023-02-28T11:18:24.713Z,4067.00
2023-02-28T11:19:24.705Z,4059.00
2023-02-28T11:20:25.716Z,4052.00
2023-02-28T11:21:25.697Z,4047.00
2023-02-28T11:22:25.690Z,4046.00
2023-02-28T11:23:25.669Z,4040.00
2023-02-28T11:24:25.742Z,4032.00
2023-02-28T11:25:25.661Z,4029.00
2023-02-28T11:26:25.659Z,4029.00
2023-02-28T11:27:25.653Z,4022.00
2023-02-28T11:28:25.682Z,4019.00
2023-02-28T11:29:24.674Z,4020.00
2023-02-28T11:30:25.705Z,4018.00
2023-02-28T11:31:24.758Z,4012.00
2023-02-28T11:32:25.953Z,4008.00
2023-02-28T11:33:25.804Z,4005.00
2023-02-28T11:34:25.878Z,3993.00
2023-02-28T11:35:25.951Z,3991.00
2023-02-28T11:36:25.208Z,3980.00
2023-02-28T11:37:25.996Z,3975.00
2023-02-28T11:38:25.978Z,3975.00
2023-02-28T11:39:26.003Z,3978.00
2023-02-28T11:40:26.053Z,3978.00
2023-02-28T11:41:26.187Z,3973.00
2023-02-28T11:42:25.013Z,3965.00
2023-02-28T11:43:25.002Z,3921.00
2023-02-28T11:44:26.016Z,3694.00
2023-02-28T11:45:26.012Z,3687.00
2023-02-28T11:46:26.209Z,3681.00
2023-02-28T11:47:25.987Z,3685.00
2023-02-28T11:48:25.986Z,3726.00
2023-02-28T11:49:25.988Z,3749.00
2023-02-28T11:50:24.991Z,3726.00
2023-02-28T11:51:27.514Z,3724.00
2023-02-28T11:52:25.137Z,3721.00
2023-02-28T11:53:26.864Z,3718.00
2023-02-28T11:54:26.153Z,3723.00
2023-02-28T11:55:25.155Z,3723.00
2023-02-28T11:56:25.193Z,3730.00
2023-02-28T11:57:25.156Z,3736.00
2023-02-28T11:58:26.171Z,3740.00
2023-02-28T11:59:26.183Z,3733.00
2023-02-28T12:00:25.175Z,3740.00
2023-02-28T12:01:26.175Z,3742.00
2023-02-28T12:02:26.255Z,3741.00
2023-02-28T12:03:25.225Z,3737.00
2023-02-28T12:04:26.195Z,3731.00
2023-02-28T12:05:26.223Z,3726.00
2023-02-28T12:06:25.215Z,3722.00
2023-02-28T12:07:25.213Z,3719.00
2023-02-28T12:08:25.241Z,3719.00
2023-02-28T12:09:26.245Z,3721.00
2023-02-28T12:10:25.254Z,3716.00
2023-02-28T12:11:26.293Z,3713.00
2023-02-28T12:12:26.293Z,3696.00
2023-02-28T12:13:26.306Z,3682.00
2023-02-28T12:14:25.302Z,3669.00
2023-02-28T12:15:26.343Z,3666.00
2023-02-28T12:16:26.430Z,3661.00
2023-02-28T12:17:25.354Z,3650.00
2023-02-28T12:18:26.375Z,3592.00
2023-02-28T12:19:26.395Z,3582.00
2023-02-28T12:20:26.399Z,3586.00
2023-02-28T12:21:25.426Z,3605.00
2023-02-28T12:22:25.453Z,3581.00
2023-02-28T12:25:26.468Z,3576.00
2023-02-28T12:26:25.486Z,3582.00
2023-02-28T12:27:27.731Z,3584.00
2023-02-28T12:28:26.509Z,3574.00
2023-02-28T12:29:26.510Z,3573.00
2023-02-28T12:30:26.532Z,3548.00
2023-02-28T12:31:26.755Z,3529.00
2023-02-28T12:32:26.649Z,3527.00
2023-02-28T12:33:25.566Z,3527.00
2023-02-28T12:34:26.591Z,3526.00
2023-02-28T12:35:25.594Z,3524.00
2023-02-28T12:36:26.607Z,3527.00